Time;durP1;ratioP1;P1;durP2;ratioP2;P2;SDS_P1;SDS_P2;PMS_P1;PMS_P2;Temp;Humidity;BMP_temperature;BMP_pressure;BME280_temperature;BME280_humidity;BME280_pressure;Samples;Min_cycle;Max_cycle;Signal;HPM_P1;HPM_P2
2023/06/10 00:01:53;;;;;;;2.55;2.35;;;17.00;89.10;;;;;;5057871;28;20405;-77
2023/06/10 00:04:19;;;;;;;2.75;2.50;;;17.00;89.40;;;;;;5070594;28;20482;-77
2023/06/10 00:06:44;;;;;;;2.92;2.60;;;16.90;89.60;;;;;;5073683;28;20036;-78
2023/06/10 00:09:10;;;;;;;2.53;2.33;;;16.90;89.90;;;;;;5069799;28;20064;-78
2023/06/10 00:11:37;;;;;;;2.90;2.67;;;16.90;90.00;;;;;;5064897;28;20039;-77
2023/06/10 00:14:03;;;;;;;4.88;2.72;;;16.90;90.00;;;;;;5070623;28;20029;-78
2023/06/10 00:16:29;;;;;;;3.47;3.22;;;16.80;90.10;;;;;;5067075;28;20040;-78
2023/06/10 00:19:00;;;;;;;3.25;2.95;;;16.80;90.30;;;;;;5063757;28;20021;-79
2023/06/10 00:21:30;;;;;;;3.42;3.13;;;16.70;90.70;;;;;;5073348;28;20051;-78
2023/06/10 00:23:56;;;;;;;2.88;2.67;;;16.60;91.10;;;;;;5064520;28;20032;-77
2023/06/10 00:26:23;;;;;;;3.50;3.20;;;16.50;91.50;;;;;;5072884;28;20009;-78
2023/06/10 00:28:49;;;;;;;3.00;2.80;;;16.40;91.80;;;;;;5067209;28;20021;-77
2023/06/10 00:31:16;;;;;;;3.42;3.10;;;16.40;92.20;;;;;;5075971;28;20025;-77
2023/06/10 00:33:41;;;;;;;3.67;3.28;;;16.30;92.30;;;;;;5070909;28;20053;-80
2023/06/10 00:36:07;;;;;;;3.45;3.15;;;16.30;92.60;;;;;;5056983;28;20032;-78
2023/06/10 00:38:33;;;;;;;4.50;4.10;;;16.20;92.80;;;;;;5056036;28;20025;-78
2023/06/10 00:40:59;;;;;;;4.07;3.67;;;16.10;93.10;;;;;;5054413;28;20021;-77
2023/06/10 00:43:25;;;;;;;4.35;3.95;;;16.10;93.40;;;;;;5045632;28;20485;-78
2023/06/10 00:45:52;;;;;;;4.40;4.00;;;16.00;93.60;;;;;;5059583;28;20023;-78
2023/06/10 00:48:18;;;;;;;3.63;3.33;;;16.00;93.80;;;;;;5056297;28;20087;-78
2023/06/10 00:50:46;;;;;;;5.30;3.58;;;16.00;94.00;;;;;;5054386;28;20025;-78
2023/06/10 00:53:12;;;;;;;4.30;3.90;;;15.90;94.30;;;;;;5054026;28;20067;-78
2023/06/10 00:55:38;;;;;;;3.88;3.53;;;15.90;94.40;;;;;;5053759;28;20032;-78
2023/06/10 00:58:04;;;;;;;4.60;3.67;;;15.90;94.70;;;;;;5058009;28;20103;-77
2023/06/10 01:00:30;;;;;;;4.97;4.05;;;15.80;94.90;;;;;;5054007;28;20063;-78
2023/06/10 01:02:56;;;;;;;3.90;3.50;;;15.80;95.10;;;;;;5054908;28;20384;-77
2023/06/10 01:05:23;;;;;;;5.60;4.47;;;15.80;95.30;;;;;;5043329;28;20044;-78
2023/06/10 01:07:53;;;;;;;7.07;3.70;;;15.80;95.50;;;;;;5042835;28;20071;-77
2023/06/10 01:11:05;;;;;;;4.15;3.75;;;15.70;95.70;;;;;;5053931;28;20044;-78
2023/06/10 01:13:32;;;;;;;5.43;4.85;;;15.70;95.80;;;;;;5055011;28;20036;-78
2023/06/10 01:15:59;;;;;;;5.15;4.63;;;15.70;95.90;;;;;;5053401;28;20394;-77
2023/06/10 01:18:33;;;;;;;4.03;3.72;;;15.70;96.00;;;;;;5054875;28;20028;-76
2023/06/10 01:20:59;;;;;;;4.20;3.60;;;15.70;96.00;;;;;;5054560;28;20027;-77
2023/06/10 01:23:25;;;;;;;3.30;3.08;;;15.70;96.30;;;;;;5036856;28;20036;-77
2023/06/10 01:26:00;;;;;;;3.47;3.25;;;15.70;96.50;;;;;;5055130;28;20032;-78
2023/06/10 01:28:45;;;;;;;3.15;2.95;;;15.70;96.50;;;;;;5053687;28;20021;-77
2023/06/10 01:31:36;;;;;;;3.00;2.80;;;15.80;96.50;;;;;;5055092;28;20052;-79
2023/06/10 01:34:07;;;;;;;2.55;2.35;;;15.80;96.50;;;;;;5053263;28;20021;-77
2023/06/10 01:36:34;;;;;;;3.08;2.80;;;15.80;96.40;;;;;;5055468;28;20338;-78
2023/06/10 01:39:02;;;;;;;3.10;2.90;;;15.80;96.40;;;;;;5036223;28;20025;-77
2023/06/10 01:41:28;;;;;;;2.90;2.70;;;15.80;96.40;;;;;;5053984;28;20139;-77
2023/06/10 01:43:54;;;;;;;3.45;3.15;;;15.80;96.40;;;;;;5054168;28;20035;-76
2023/06/10 01:46:21;;;;;;;2.97;2.78;;;15.80;96.40;;;;;;5037668;28;20025;-78
2023/06/10 01:48:47;;;;;;;3.85;3.50;;;15.70;96.50;;;;;;5054194;28;20017;-77
2023/06/10 01:51:13;;;;;;;3.67;3.38;;;15.70;96.60;;;;;;5054114;28;20017;-77
2023/06/10 01:53:39;;;;;;;3.70;3.40;;;15.70;96.80;;;;;;5032287;28;20099;-78
2023/06/10 01:56:05;;;;;;;4.13;3.72;;;15.60;96.90;;;;;;5049986;28;20024;-78
2023/06/10 01:58:31;;;;;;;4.00;3.60;;;15.60;97.10;;;;;;5055437;28;20021;-78
2023/06/10 02:00:57;;;;;;;4.50;3.88;;;15.60;97.30;;;;;;5053058;28;20081;-78
2023/06/10 02:03:22;;;;;;;4.22;3.80;;;15.50;97.30;;;;;;5055181;28;20029;-79
2023/06/10 02:05:49;;;;;;;4.07;3.67;;;15.50;97.70;;;;;;5054120;28;20048;-78
2023/06/10 02:08:14;;;;;;;3.33;3.03;;;15.40;97.90;;;;;;5055963;28;20163;-77
2023/06/10 02:10:40;;;;;;;3.30;3.00;;;15.40;98.10;;;;;;5056128;28;20052;-78
2023/06/10 02:13:06;;;;;;;2.78;2.58;;;15.40;98.30;;;;;;5053769;28;20021;-78
2023/06/10 02:15:32;;;;;;;3.20;2.90;;;15.40;98.50;;;;;;5058562;28;20025;-78
2023/06/10 02:17:59;;;;;;;2.67;2.47;;;15.40;98.60;;;;;;5055288;28;20094;-77
2023/06/10 02:20:25;;;;;;;2.70;2.50;;;15.40;98.70;;;;;;5059431;28;20031;-78
2023/06/10 02:22:51;;;;;;;2.47;2.28;;;15.40;98.70;;;;;;5057242;28;20045;-78
2023/06/10 02:25:16;;;;;;;2.47;2.28;;;15.40;98.80;;;;;;5055250;28;20100;-77
2023/06/10 02:27:42;;;;;;;2.78;2.58;;;15.40;98.90;;;;;;5055456;28;20442;-77
2023/06/10 02:30:10;;;;;;;2.90;2.70;;;15.40;99.00;;;;;;5047206;28;20025;-79
2023/06/10 02:32:36;;;;;;;3.05;2.75;;;15.30;99.10;;;;;;5077213;28;20013;-77
2023/06/10 02:35:01;;;;;;;3.25;2.95;;;15.30;99.30;;;;;;5075557;28;20032;-77
2023/06/10 02:37:27;;;;;;;2.92;2.72;;;15.30;99.50;;;;;;5060681;28;20100;-77
2023/06/10 02:39:53;;;;;;;2.67;2.47;;;15.20;99.60;;;;;;5059206;28;20099;-78
2023/06/10 02:42:19;;;;;;;2.50;2.30;;;15.20;99.80;;;;;;5057294;28;20102;-78
2023/06/10 02:44:44;;;;;;;2.45;2.35;;;15.20;99.90;;;;;;5055934;28;20028;-79
2023/06/10 02:47:10;;;;;;;2.30;2.13;;;15.20;99.90;;;;;;5064424;28;20013;-78
2023/06/10 02:49:36;;;;;;;2.67;2.47;;;15.10;99.90;;;;;;5056152;28;20059;-77
2023/06/10 02:52:02;;;;;;;2.50;2.30;;;15.10;99.90;;;;;;5041238;28;20495;-77
2023/06/10 02:54:27;;;;;;;2.40;2.20;;;15.10;99.90;;;;;;5051708;28;20037;-78
2023/06/10 02:56:55;;;;;;;2.42;2.22;;;15.00;99.90;;;;;;5059931;28;20017;-77
2023/06/10 02:59:21;;;;;;;2.33;2.05;;;15.00;99.90;;;;;;5042729;28;20036;-77
2023/06/10 03:01:47;;;;;;;2.42;2.22;;;15.00;99.90;;;;;;5057492;28;20025;-78
2023/06/10 03:04:14;;;;;;;2.60;2.40;;;15.00;99.90;;;;;;5063571;28;20065;-78
2023/06/10 03:06:40;;;;;;;2.92;2.72;;;15.00;99.90;;;;;;5055024;28;20048;-79
2023/06/10 03:09:10;;;;;;;3.38;2.90;;;15.00;99.90;;;;;;5072160;28;20036;-80
2023/06/10 03:11:35;;;;;;;3.42;3.15;;;14.90;99.90;;;;;;5066406;28;20028;-81
2023/06/10 03:14:01;;;;;;;3.80;3.50;;;14.90;99.90;;;;;;5052746;28;20021;-81
2023/06/10 03:16:27;;;;;;;4.13;3.83;;;14.80;99.90;;;;;;5054613;28;20395;-80
2023/06/10 03:18:56;;;;;;;5.18;4.45;;;14.80;99.90;;;;;;5058709;28;20099;-79
2023/06/10 03:21:22;;;;;;;4.75;4.32;;;14.80;99.90;;;;;;5058549;28;20021;-80
2023/06/10 03:23:48;;;;;;;4.82;4.35;;;14.70;99.90;;;;;;5041295;28;20068;-80
2023/06/10 03:26:16;;;;;;;7.57;5.97;;;14.70;99.90;;;;;;5071334;28;20139;-80
2023/06/10 03:28:42;;;;;;;6.82;6.13;;;14.60;99.90;;;;;;5073354;28;20044;-80
2023/06/10 03:31:08;;;;;;;6.40;5.60;;;14.60;99.90;;;;;;5077488;28;20039;-81
2023/06/10 03:33:33;;;;;;;6.80;6.00;;;14.50;99.90;;;;;;5067265;28;20063;-80
2023/06/10 03:35:59;;;;;;;6.30;5.28;;;14.50;99.90;;;;;;5078886;28;20029;-80
2023/06/10 03:38:25;;;;;;;5.80;5.30;;;14.40;99.90;;;;;;5073002;28;20049;-80
2023/06/10 03:40:50;;;;;;;5.65;5.05;;;14.40;99.90;;;;;;5059163;28;20032;-80
2023/06/10 03:43:16;;;;;;;5.63;5.10;;;14.40;99.90;;;;;;5062378;28;20021;-82
2023/06/10 03:45:42;;;;;;;5.93;5.38;;;14.40;99.90;;;;;;5058337;28;20040;-81
2023/06/10 03:48:08;;;;;;;8.50;6.13;;;14.40;99.90;;;;;;5068959;28;20029;-80
2023/06/10 03:50:34;;;;;;;6.53;5.57;;;14.40;99.90;;;;;;5062600;28;20106;-81
2023/06/10 03:53:00;;;;;;;6.03;5.43;;;14.40;99.90;;;;;;5057621;28;20039;-81
2023/06/10 03:55:26;;;;;;;5.28;4.78;;;14.40;99.90;;;;;;5058504;28;20022;-81
2023/06/10 03:57:52;;;;;;;5.63;4.53;;;14.40;99.90;;;;;;5058706;28;20029;-79
2023/06/10 04:00:18;;;;;;;4.85;4.45;;;14.40;99.90;;;;;;5059313;28;20043;-80
2023/06/10 04:02:49;;;;;;;4.82;4.35;;;14.40;99.90;;;;;;5045319;28;20049;-81
2023/06/10 04:05:21;;;;;;;4.88;4.38;;;14.50;99.90;;;;;;5055137;28;20013;-78
2023/06/10 04:07:48;;;;;;;4.60;4.20;;;14.50;99.90;;;;;;5056151;28;20029;-78
2023/06/10 04:10:14;;;;;;;4.63;4.22;;;14.50;99.90;;;;;;5053586;28;20021;-78
2023/06/10 04:12:40;;;;;;;4.47;4.07;;;14.50;99.90;;;;;;5056138;28;20031;-78
2023/06/10 04:15:06;;;;;;;4.20;3.85;;;14.60;99.90;;;;;;5054779;28;20025;-78
2023/06/10 04:17:32;;;;;;;4.53;4.13;;;14.60;99.90;;;;;;5055633;28;20031;-78
2023/06/10 04:19:58;;;;;;;4.65;4.25;;;14.70;99.90;;;;;;5040662;28;20107;-78
2023/06/10 04:22:25;;;;;;;5.50;4.88;;;14.70;99.90;;;;;;5055432;28;20478;-78
2023/06/10 04:24:51;;;;;;;4.60;4.20;;;14.70;99.90;;;;;;5054654;28;20090;-80
2023/06/10 04:27:17;;;;;;;4.90;4.10;;;14.80;99.90;;;;;;5055063;28;20537;-79
2023/06/10 04:29:42;;;;;;;5.00;4.60;;;14.80;99.90;;;;;;5055692;28;20079;-77
2023/06/10 04:32:08;;;;;;;4.30;4.00;;;14.90;99.90;;;;;;5056594;28;20112;-79
2023/06/10 04:34:34;;;;;;;4.97;4.47;;;15.00;99.90;;;;;;5057701;28;20104;-79
2023/06/10 04:37:00;;;;;;;4.43;4.03;;;15.00;99.90;;;;;;5069799;28;20029;-79
2023/06/10 04:39:26;;;;;;;4.18;3.88;;;15.10;99.90;;;;;;5063839;28;20147;-79
2023/06/10 04:41:51;;;;;;;4.78;4.28;;;15.10;99.90;;;;;;5065667;28;20029;-77
2023/06/10 04:44:18;;;;;;;4.38;3.97;;;15.20;99.90;;;;;;5073581;28;20033;-78
2023/06/10 04:46:44;;;;;;;6.28;4.90;;;15.30;99.90;;;;;;5076057;28;20055;-78
2023/06/10 04:49:10;;;;;;;5.47;4.93;;;15.40;99.90;;;;;;5076017;28;20032;-80
2023/06/10 04:51:37;;;;;;;5.20;4.70;;;15.50;99.90;;;;;;5076912;28;20017;-83
2023/06/10 04:54:03;;;;;;;5.07;4.57;;;15.60;99.90;;;;;;5056393;28;20025;-81
2023/06/10 04:56:30;;;;;;;5.57;4.90;;;15.60;99.90;;;;;;5057067;28;20051;-79
2023/06/10 04:58:59;;;;;;;4.50;4.10;;;15.80;99.90;;;;;;5059202;28;20021;-80
2023/06/10 05:01:27;;;;;;;5.18;4.65;;;15.80;99.90;;;;;;5060394;28;20036;-81
2023/06/10 05:03:53;;;;;;;5.45;4.90;;;15.90;99.90;;;;;;5068776;28;20055;-79
2023/06/10 05:06:19;;;;;;;6.07;5.47;;;16.10;99.90;;;;;;5075328;28;20025;-81
2023/06/10 05:08:44;;;;;;;6.47;5.72;;;17.10;99.90;;;;;;5064924;28;20045;-80
2023/06/10 05:11:10;;;;;;;6.05;5.45;;;18.70;99.70;;;;;;5076483;28;20021;-80
2023/06/10 05:13:36;;;;;;;5.53;4.95;;;20.60;95.30;;;;;;5075548;28;20083;-81
2023/06/10 05:16:02;;;;;;;4.30;4.00;;;22.30;90.90;;;;;;5070726;28;20089;-79
2023/06/10 05:18:28;;;;;;;5.88;4.43;;;23.60;84.00;;;;;;5058066;28;20021;-80
2023/06/10 05:20:54;;;;;;;4.07;3.78;;;24.50;77.50;;;;;;5038808;28;20086;-80
2023/06/10 05:23:20;;;;;;;4.45;4.05;;;25.40;73.50;;;;;;5059421;28;20033;-80
2023/06/10 05:25:46;;;;;;;3.35;3.15;;;26.20;69.10;;;;;;5058973;28;20021;-80
2023/06/10 05:28:11;;;;;;;3.70;3.40;;;26.70;66.90;;;;;;5061489;28;20021;-80
2023/06/10 05:30:38;;;;;;;3.83;3.53;;;27.10;63.90;;;;;;5062960;28;20151;-79
2023/06/10 05:33:04;;;;;;;3.58;3.28;;;27.50;63.00;;;;;;5070083;28;20028;-80
2023/06/10 05:35:30;;;;;;;3.08;2.88;;;28.00;60.90;;;;;;5063062;28;20373;-80
2023/06/10 05:37:56;;;;;;;3.45;3.25;;;28.70;59.60;;;;;;5040566;28;20104;-81
2023/06/10 05:40:22;;;;;;;3.80;3.50;;;;;;;;;;5059155;28;20434;-81
2023/06/10 05:42:48;;;;;;;2.97;2.78;;;28.50;56.40;;;;;;5059394;28;20068;-80
2023/06/10 05:45:13;;;;;;;3.00;2.80;;;28.60;57.50;;;;;;5040719;28;20025;-80
2023/06/10 05:47:40;;;;;;;3.10;2.90;;;29.30;56.80;;;;;;5059469;28;20032;-80
2023/06/10 05:50:09;;;;;;;3.00;2.80;;;29.70;55.10;;;;;;5059182;28;20025;-80
2023/06/10 05:52:36;;;;;;;3.22;3.03;;;29.90;53.80;;;;;;5057239;28;20025;-80
2023/06/10 05:55:03;;;;;;;4.00;3.70;;;;;;;;;;5049635;28;20493;-81
2023/06/10 05:57:28;;;;;;;3.97;3.67;;;29.80;52.90;;;;;;5038819;28;20021;-80
2023/06/10 05:59:54;;;;;;;3.40;3.20;;;29.80;53.80;;;;;;5039562;28;20029;-82
2023/06/10 06:02:20;;;;;;;3.63;3.33;;;30.10;54.00;;;;;;5038238;28;20037;-81
2023/06/10 06:04:46;;;;;;;4.10;3.80;;;30.40;52.80;;;;;;5037270;28;20025;-81
2023/06/10 06:07:11;;;;;;;4.35;3.53;;;30.30;52.10;;;;;;5046251;28;20048;-80
2023/06/10 06:09:37;;;;;;;4.65;4.20;;;30.20;52.60;;;;;;5051846;28;20036;-80
2023/06/10 06:12:03;;;;;;;3.80;3.50;;;30.20;52.50;;;;;;5050298;28;20076;-80
2023/06/10 06:14:32;;;;;;;4.40;4.03;;;30.20;53.00;;;;;;5022913;28;20082;-81
2023/06/10 06:16:57;;;;;;;5.38;3.80;;;30.30;52.30;;;;;;5039164;28;20537;-81
2023/06/10 06:19:23;;;;;;;5.05;3.40;;;30.50;52.70;;;;;;5033604;28;20049;-82
2023/06/10 06:21:49;;;;;;;4.75;4.38;;;30.80;51.80;;;;;;5058536;28;20036;-81
2023/06/10 06:24:15;;;;;;;5.70;5.20;;;30.60;51.20;;;;;;5058919;28;20025;-82
2023/06/10 06:26:41;;;;;;;5.22;4.72;;;30.10;51.70;;;;;;5058655;28;20025;-81
2023/06/10 06:29:07;;;;;;;4.43;4.03;;;29.90;52.70;;;;;;5056649;28;20028;-81
2023/06/10 06:31:32;;;;;;;4.57;4.28;;;29.70;52.60;;;;;;5056771;28;20025;-80
2023/06/10 06:33:58;;;;;;;4.70;4.30;;;29.60;53.20;;;;;;5039424;28;20028;-80
2023/06/10 06:36:24;;;;;;;4.65;4.25;;;28.60;53.30;;;;;;5056789;28;20035;-80
2023/06/10 06:38:49;;;;;;;4.03;3.67;;;27.20;56.20;;;;;;5074204;28;20013;-81
2023/06/10 06:41:15;;;;;;;4.10;3.80;;;25.80;58.80;;;;;;5062823;28;20040;-80
2023/06/10 06:43:42;;;;;;;4.00;3.67;;;24.80;61.40;;;;;;5057170;28;20023;-81
2023/06/10 06:46:09;;;;;;;3.30;3.10;;;;;;;;;;5063789;28;20021;-80
2023/06/10 06:48:35;;;;;;;2.75;2.55;;;24.80;63.50;;;;;;5065361;28;20036;-80
2023/06/10 06:51:01;;;;;;;2.97;2.78;;;25.90;62.90;;;;;;5062966;28;20048;-80
2023/06/10 06:53:26;;;;;;;3.33;3.13;;;27.00;60.30;;;;;;5059576;28;20021;-81
2023/06/10 06:55:52;;;;;;;3.63;3.33;;;27.60;57.90;;;;;;5059961;28;20021;-80
2023/06/10 06:58:18;;;;;;;3.20;3.00;;;28.00;57.00;;;;;;5065273;28;20025;-81
2023/06/10 07:00:43;;;;;;;3.50;3.17;;;28.60;56.30;;;;;;5065321;28;20013;-80
2023/06/10 07:03:09;;;;;;;3.40;2.95;;;29.20;54.10;;;;;;5067573;28;20128;-81
2023/06/10 07:05:35;;;;;;;3.03;2.83;;;29.30;54.10;;;;;;5069089;28;20073;-80
2023/06/10 07:08:01;;;;;;;3.13;2.92;;;29.50;52.70;;;;;;5069822;28;20025;-80
2023/06/10 07:10:27;;;;;;;3.67;3.38;;;28.40;52.90;;;;;;5070048;28;20021;-80
2023/06/10 07:12:53;;;;;;;3.15;2.95;;;27.70;55.80;;;;;;5050989;28;20033;-80
2023/06/10 07:15:19;;;;;;;3.60;3.30;;;28.40;55.20;;;;;;5070760;28;20040;-81
2023/06/10 07:17:45;;;;;;;4.82;4.32;;;28.70;54.10;;;;;;5051146;28;20052;-80
2023/06/10 07:20:11;;;;;;;3.95;3.65;;;27.80;54.00;;;;;;5070569;28;20025;-79
2023/06/10 07:22:38;;;;;;;4.20;3.80;;;25.90;56.80;;;;;;5071300;28;20035;-81
2023/06/10 07:25:05;;;;;;;4.07;3.78;;;24.30;60.60;;;;;;5071030;28;20021;-81
2023/06/10 07:27:31;;;;;;;4.80;4.40;;;23.30;64.50;;;;;;5071315;28;20028;-80
2023/06/10 07:29:56;;;;;;;4.63;4.30;;;22.60;66.90;;;;;;5070263;28;20028;-80
2023/06/10 07:32:23;;;;;;;4.60;4.20;;;22.10;69.00;;;;;;5071453;28;20097;-80
2023/06/10 07:34:50;;;;;;;4.05;3.70;;;21.70;70.70;;;;;;5046937;28;20598;-81
2023/06/10 07:37:16;;;;;;;5.80;5.28;;;21.40;72.20;;;;;;5066179;28;20021;-80
2023/06/10 07:39:43;;;;;;;5.35;4.93;;;21.30;73.00;;;;;;5063647;28;20032;-81
2023/06/10 07:42:09;;;;;;;5.57;5.07;;;21.10;73.90;;;;;;5062137;28;20031;-80
2023/06/10 07:44:34;;;;;;;6.00;4.15;;;21.00;74.60;;;;;;5061285;28;20024;-81
2023/06/10 07:47:00;;;;;;;5.72;5.20;;;20.80;75.40;;;;;;5061501;28;20021;-81
2023/06/10 07:49:26;;;;;;;5.05;4.55;;;20.70;76.30;;;;;;5054817;28;20474;-81
2023/06/10 07:51:53;;;;;;;5.15;4.57;;;20.60;77.10;;;;;;5061027;28;20025;-80
2023/06/10 07:54:19;;;;;;;5.05;4.65;;;20.60;77.90;;;;;;5059064;28;20027;-79
2023/06/10 07:56:45;;;;;;;4.80;4.43;;;20.50;78.70;;;;;;5059224;28;20029;-80
2023/06/10 07:59:10;;;;;;;4.28;3.88;;;20.60;79.20;;;;;;5066057;28;20029;-80
2023/06/10 08:01:38;;;;;;;4.90;4.50;;;20.70;79.30;;;;;;5077229;28;20192;-80
2023/06/10 08:04:04;;;;;;;4.03;3.67;;;20.70;78.90;;;;;;5074147;28;20039;-80
2023/06/10 08:06:29;;;;;;;5.68;5.18;;;20.90;79.20;;;;;;5072761;28;20056;-80
2023/06/10 08:08:55;;;;;;;6.97;6.28;;;20.90;78.90;;;;;;5077081;28;20055;-80
2023/06/10 08:11:21;;;;;;;6.15;5.50;;;20.90;78.60;;;;;;5071169;28;20029;-80
2023/06/10 08:13:48;;;;;;;5.40;4.95;;;20.80;79.30;;;;;;5066232;28;20294;-80
2023/06/10 08:16:14;;;;;;;7.28;5.50;;;20.90;79.80;;;;;;5058798;28;20021;-81
2023/06/10 08:18:40;;;;;;;5.78;5.25;;;21.00;79.60;;;;;;5038678;28;20036;-81
2023/06/10 08:21:05;;;;;;;5.22;4.72;;;21.10;79.20;;;;;;5057095;28;20075;-80
2023/06/10 08:23:31;;;;;;;5.82;4.28;;;21.20;79.00;;;;;;5061937;28;20115;-81
2023/06/10 08:25:57;;;;;;;4.22;3.83;;;21.30;78.30;;;;;;5046300;28;20044;-79
2023/06/10 08:28:23;;;;;;;4.03;3.63;;;21.40;78.00;;;;;;5068924;28;20127;-80
2023/06/10 08:30:49;;;;;;;4.45;4.07;;;21.60;77.80;;;;;;5072686;28;20071;-80
2023/06/10 08:33:15;;;;;;;5.68;4.63;;;21.80;77.10;;;;;;5069841;28;20021;-81
2023/06/10 08:35:40;;;;;;;4.88;4.43;;;21.90;76.50;;;;;;5068620;28;20029;-80
2023/06/10 08:38:06;;;;;;;4.65;4.20;;;22.00;76.60;;;;;;5065710;28;20029;-79
2023/06/10 08:40:33;;;;;;;5.18;4.63;;;22.20;75.80;;;;;;5056712;28;20092;-80
2023/06/10 08:43:10;;;;;;;4.10;3.80;;;22.30;74.40;;;;;;5068765;28;20051;-80
2023/06/10 08:45:37;;;;;;;3.90;3.60;;;22.50;73.90;;;;;;5062209;28;20130;-80
2023/06/10 08:48:06;;;;;;;4.07;3.78;;;22.70;73.20;;;;;;5062364;28;20466;-80
2023/06/10 08:50:36;;;;;;;4.10;3.80;;;22.90;72.80;;;;;;5041274;28;20108;-80
2023/06/10 08:53:05;;;;;;;5.65;5.10;;;23.10;73.10;;;;;;5061281;28;20029;-80
2023/06/10 08:55:33;;;;;;;5.65;5.15;;;23.10;71.80;;;;;;5041395;28;20116;-80
2023/06/10 08:58:03;;;;;;;6.20;5.35;;;;;;;;;;5066873;28;20029;-80
2023/06/10 09:00:30;;;;;;;5.10;4.68;;;22.60;72.40;;;;;;5058146;28;20054;-81
2023/06/10 09:02:56;;;;;;;4.35;4.03;;;22.50;74.10;;;;;;5058634;28;20029;-80
2023/06/10 09:05:23;;;;;;;5.50;4.90;;;22.50;74.30;;;;;;5058528;28;20021;-80
2023/06/10 09:07:49;;;;;;;4.47;4.10;;;22.70;73.50;;;;;;5058686;28;20071;-81
2023/06/10 09:10:15;;;;;;;5.60;4.80;;;22.80;72.80;;;;;;5058759;28;20024;-80
2023/06/10 09:12:41;;;;;;;4.75;4.35;;;22.90;71.30;;;;;;5058760;28;20112;-81
2023/06/10 09:15:07;;;;;;;5.43;4.25;;;22.90;71.30;;;;;;5058600;28;20074;-79
2023/06/10 09:17:36;;;;;;;4.53;4.07;;;23.10;71.30;;;;;;5057254;28;20074;-80
2023/06/10 09:20:02;;;;;;;4.40;4.00;;;23.20;71.10;;;;;;5063673;28;20017;-80
2023/06/10 09:22:28;;;;;;;5.32;4.82;;;23.30;70.70;;;;;;5076945;28;20047;-81
2023/06/10 09:25:05;;;;;;;4.85;4.45;;;23.40;70.10;;;;;;5076817;28;20033;-82
2023/06/10 09:27:34;;;;;;;4.57;4.25;;;23.50;70.00;;;;;;5071062;28;20022;-80
2023/06/10 09:30:00;;;;;;;5.25;4.75;;;23.60;69.90;;;;;;5040827;28;20056;-80
2023/06/10 09:32:27;;;;;;;4.72;4.32;;;23.80;68.70;;;;;;5069069;28;20080;-80
2023/06/10 09:34:52;;;;;;;4.05;3.75;;;23.80;67.40;;;;;;5060580;28;20375;-79
2023/06/10 09:37:22;;;;;;;4.20;3.83;;;24.00;67.80;;;;;;5062165;28;20082;-81
2023/06/10 09:40:03;;;;;;;3.78;3.47;;;24.10;66.50;;;;;;5041420;28;20035;-81
2023/06/10 09:42:35;;;;;;;4.07;3.78;;;24.20;67.00;;;;;;5040232;28;20102;-79
2023/06/10 09:45:02;;;;;;;4.30;4.00;;;24.10;65.80;;;;;;5041893;28;20040;-80
2023/06/10 09:47:28;;;;;;;4.40;4.10;;;24.10;65.80;;;;;;5042053;28;20018;-80
2023/06/10 09:49:53;;;;;;;3.95;3.55;;;24.10;66.30;;;;;;5054933;28;20061;-80
2023/06/10 09:52:27;;;;;;;5.22;4.03;;;24.00;64.80;;;;;;5061144;28;20028;-81
2023/06/10 09:55:02;;;;;;;5.50;4.65;;;23.80;65.30;;;;;;5063896;28;20028;-79
2023/06/10 09:57:35;;;;;;;4.50;4.20;;;24.00;64.90;;;;;;5050533;28;20033;-80
2023/06/10 10:00:11;;;;;;;4.10;3.80;;;24.20;64.50;;;;;;5043511;28;20057;-81
2023/06/10 10:02:48;;;;;;;3.92;3.50;;;24.30;64.00;;;;;;5060172;28;20025;-81
2023/06/10 10:05:15;;;;;;;3.58;3.35;;;24.30;64.20;;;;;;5058578;28;20029;-80
2023/06/10 10:07:42;;;;;;;3.55;2.90;;;24.40;63.60;;;;;;5057548;28;20083;-80
2023/06/10 10:10:09;;;;;;;3.55;3.25;;;24.70;63.10;;;;;;5057187;28;20032;-80
2023/06/10 10:12:36;;;;;;;3.08;2.88;;;24.90;61.30;;;;;;5057430;28;20029;-80
2023/06/10 10:15:03;;;;;;;2.95;2.75;;;25.00;61.50;;;;;;5056808;28;20428;-80
2023/06/10 10:17:29;;;;;;;2.97;2.78;;;25.10;61.70;;;;;;5047538;28;20531;-80
2023/06/10 10:20:02;;;;;;;3.40;3.10;;;25.00;61.30;;;;;;5053509;28;20096;-79
2023/06/10 10:22:34;;;;;;;3.20;3.00;;;24.50;61.20;;;;;;5058843;28;20044;-79
2023/06/10 10:25:05;;;;;;;3.08;2.88;;;24.10;62.70;;;;;;5037650;28;20096;-80
2023/06/10 10:27:34;;;;;;;3.47;3.17;;;;;;;;;;5056075;28;20100;-82
2023/06/10 10:30:04;;;;;;;3.13;2.75;;;24.50;62.70;;;;;;5058587;28;20421;-80
2023/06/10 10:32:35;;;;;;;2.72;2.53;;;25.10;61.50;;;;;;5059804;28;20060;-80
2023/06/10 10:35:12;;;;;;;2.63;2.42;;;25.80;59.30;;;;;;5061332;28;20025;-80
2023/06/10 10:37:38;;;;;;;3.78;2.70;;;26.20;57.90;;;;;;5042567;28;20026;-79
2023/06/10 10:40:05;;;;;;;2.90;2.67;;;26.40;56.90;;;;;;5074937;28;20009;-82
2023/06/10 10:42:32;;;;;;;2.55;2.45;;;26.40;56.60;;;;;;5058126;28;20025;-80
2023/06/10 10:44:59;;;;;;;3.15;2.95;;;26.20;56.60;;;;;;5051330;28;20032;-80
2023/06/10 10:47:30;;;;;;;2.80;2.60;;;26.00;56.90;;;;;;5071653;28;20079;-80
2023/06/10 10:49:59;;;;;;;3.03;2.80;;;26.00;57.50;;;;;;5071817;28;20076;-80
2023/06/10 10:52:27;;;;;;;3.05;2.85;;;26.20;57.20;;;;;;5066712;28;20044;-79
2023/06/10 10:54:54;;;;;;;3.53;2.70;;;26.30;56.50;;;;;;5056529;28;20021;-81
2023/06/10 10:57:23;;;;;;;2.70;2.50;;;26.60;56.30;;;;;;5061497;28;20044;-82
2023/06/10 10:59:48;;;;;;;3.05;2.85;;;26.60;55.90;;;;;;5063692;28;20531;-80
2023/06/10 11:02:45;;;;;;;2.75;2.55;;;26.70;55.90;;;;;;5078169;28;20025;-80
2023/06/10 11:05:14;;;;;;;2.90;2.70;;;26.80;55.40;;;;;;5070611;28;20037;-80
2023/06/10 11:07:39;;;;;;;2.33;2.22;;;26.70;55.00;;;;;;5066443;28;20033;-81
2023/06/10 11:10:09;;;;;;;2.40;2.28;;;26.70;55.00;;;;;;5067173;28;20028;-80
2023/06/10 11:12:45;;;;;;;2.70;2.50;;;26.60;54.70;;;;;;5064712;28;20053;-81
2023/06/10 11:15:12;;;;;;;3.25;2.88;;;26.50;54.90;;;;;;5063981;28;20036;-81
2023/06/10 11:17:38;;;;;;;4.10;2.53;;;26.60;54.40;;;;;;5061338;28;20021;-80
2023/06/10 11:20:05;;;;;;;2.28;2.17;;;26.30;54.10;;;;;;5043795;28;20078;-80
2023/06/10 11:22:30;;;;;;;2.85;2.63;;;26.00;54.80;;;;;;5071301;28;20052;-80
2023/06/10 11:24:59;;;;;;;4.00;2.42;;;26.20;54.70;;;;;;5049045;28;20043;-81
2023/06/10 11:27:24;;;;;;;2.08;1.98;;;26.40;54.40;;;;;;5061277;28;20402;-80
2023/06/10 11:30:03;;;;;;;2.90;2.70;;;;;;;;;;5065757;28;20019;-80
2023/06/10 11:32:33;;;;;;;3.00;2.80;;;26.50;53.50;;;;;;5073141;28;20032;-81
2023/06/10 11:35:00;;;;;;;3.20;3.00;;;26.20;55.30;;;;;;5057526;28;20033;-80
2023/06/10 11:37:25;;;;;;;2.80;2.60;;;26.30;55.90;;;;;;5058696;28;20029;-80
2023/06/10 11:39:55;;;;;;;2.60;2.40;;;26.60;54.70;;;;;;5040336;28;20079;-81
2023/06/10 11:42:22;;;;;;;2.92;2.72;;;;;;;;;;5041877;28;20028;-80
2023/06/10 11:44:52;;;;;;;2.42;2.30;;;26.50;54.30;;;;;;5041197;28;20390;-81
2023/06/10 11:47:19;;;;;;;2.10;2.00;;;26.20;55.50;;;;;;5040592;28;20037;-81
2023/06/10 11:49:55;;;;;;;2.22;2.10;;;26.30;55.30;;;;;;5054608;28;20033;-81
2023/06/10 11:52:29;;;;;;;2.70;2.50;;;26.60;54.40;;;;;;5060107;28;20389;-80
2023/06/10 11:54:55;;;;;;;2.70;2.50;;;26.90;53.90;;;;;;5059572;28;20041;-81
2023/06/10 11:57:21;;;;;;;2.58;2.28;;;26.70;53.20;;;;;;5048050;28;20034;-80
2023/06/10 11:59:47;;;;;;;2.45;2.28;;;26.40;53.50;;;;;;5022423;28;20025;-82
2023/06/10 12:02:17;;;;;;;2.28;2.10;;;26.50;53.40;;;;;;5022585;28;20032;-80
2023/06/10 12:04:43;;;;;;;2.60;2.47;;;26.60;53.10;;;;;;5022768;28;20025;-81
2023/06/10 12:07:08;;;;;;;2.08;1.98;;;26.50;53.00;;;;;;5039630;28;20084;-80
2023/06/10 12:09:34;;;;;;;1.92;1.83;;;26.70;52.90;;;;;;5040560;28;20352;-81
2023/06/10 12:12:05;;;;;;;2.15;2.03;;;26.90;52.10;;;;;;5041465;28;20041;-80
2023/06/10 12:14:56;;;;;;;3.53;2.50;;;27.10;52.00;;;;;;5057539;28;20040;-81
2023/06/10 12:17:43;;;;;;;2.20;2.10;;;27.10;51.80;;;;;;5040494;28;20033;-81
2023/06/10 12:20:24;;;;;;;3.53;2.33;;;27.20;51.80;;;;;;5057754;28;20083;-81
2023/06/10 12:22:50;;;;;;;2.10;2.00;;;27.30;51.30;;;;;;5061008;28;20033;-82
2023/06/10 12:25:15;;;;;;;2.13;2.03;;;27.20;50.40;;;;;;5060363;28;20021;-80
2023/06/10 12:27:51;;;;;;;2.50;2.30;;;27.20;50.70;;;;;;5060294;28;20478;-81
2023/06/10 12:30:20;;;;;;;2.97;2.22;;;27.20;50.80;;;;;;5060367;28;20085;-81
2023/06/10 12:32:47;;;;;;;2.20;2.10;;;27.10;50.50;;;;;;5059673;28;20021;-82
2023/06/10 12:35:17;;;;;;;1.92;1.67;;;27.20;50.60;;;;;;5059099;28;20520;-80
2023/06/10 12:38:06;;;;;;;2.13;2.03;;;27.40;50.40;;;;;;5061004;28;20021;-81
2023/06/10 12:40:40;;;;;;;2.58;2.38;;;27.60;50.50;;;;;;5057187;28;20109;-81
2023/06/10 12:43:05;;;;;;;2.47;2.38;;;27.70;50.10;;;;;;5065362;28;20023;-80
2023/06/10 12:45:36;;;;;;;2.20;2.00;;;27.70;49.10;;;;;;5064330;28;20025;-80
2023/06/10 12:48:12;;;;;;;1.90;1.80;;;27.50;49.90;;;;;;5056340;28;20083;-80
2023/06/10 12:50:40;;;;;;;2.08;1.98;;;26.90;50.30;;;;;;5053376;28;20100;-80
2023/06/10 12:53:06;;;;;;;2.28;2.10;;;;;;;;;;5057830;28;20028;-80